createdAt,value
2023-03-10T00:01:26.436Z,95152.94
2023-03-10T00:03:57.961Z,95146.78
2023-03-10T00:06:29.623Z,95140.97
2023-03-10T00:08:59.412Z,95139.13
2023-03-10T00:11:28.241Z,95138.56
2023-03-10T00:13:56.891Z,95134.00
2023-03-10T00:16:28.990Z,95134.00
2023-03-10T00:18:58.435Z,95127.50
2023-03-10T00:21:30.096Z,95136.75
2023-03-10T00:23:59.754Z,95135.81
2023-03-10T00:26:30.212Z,95130.66
2023-03-10T00:28:58.871Z,95125.75
2023-03-10T00:31:31.679Z,95130.53
2023-03-10T00:34:00.637Z,95128.13
2023-03-10T00:36:31.885Z,95128.44
2023-03-10T00:39:02.129Z,95127.91
2023-03-10T00:41:33.495Z,95114.06
2023-03-10T00:44:02.379Z,95106.72
2023-03-10T00:46:34.639Z,95098.41
2023-03-10T00:49:03.327Z,95088.72
2023-03-10T00:51:31.781Z,95085.41
2023-03-10T00:54:01.917Z,95080.84
2023-03-10T00:56:33.148Z,95073.63
2023-03-10T00:59:02.350Z,95075.19
2023-03-10T01:01:35.358Z,95065.97
2023-03-10T01:04:08.559Z,95052.22
2023-03-10T01:06:40.588Z,95044.88
2023-03-10T01:09:10.038Z,95042.06
2023-03-10T01:11:38.902Z,95044.31
2023-03-10T01:14:12.387Z,95028.50
2023-03-10T01:16:42.325Z,95032.47
2023-03-10T01:19:10.642Z,95027.28
2023-03-10T01:21:40.702Z,95018.34
2023-03-10T01:24:15.146Z,95017.78
2023-03-10T01:26:44.619Z,95008.63
2023-03-10T01:29:14.021Z,95001.28
2023-03-10T01:31:44.203Z,94989.00
2023-03-10T01:34:12.728Z,94986.13
2023-03-10T01:36:43.485Z,94981.59
2023-03-10T01:39:12.079Z,94973.59
2023-03-10T01:41:43.286Z,94969.66
2023-03-10T01:44:18.644Z,94975.97
2023-03-10T01:46:52.092Z,94967.59
2023-03-10T01:49:47.847Z,94977.25
2023-03-10T01:52:21.636Z,94974.00
2023-03-10T01:54:56.169Z,94970.84
2023-03-10T01:57:30.725Z,94971.16
2023-03-10T02:00:01.139Z,94955.72
2023-03-10T02:02:40.984Z,94957.75
2023-03-10T02:05:10.297Z,94940.50
2023-03-10T02:07:41.281Z,94942.44
2023-03-10T02:10:12.154Z,94936.22
2023-03-10T02:12:40.678Z,94932.41
2023-03-10T02:15:11.292Z,94918.44
2023-03-10T02:17:42.548Z,94924.06
2023-03-10T02:20:28.058Z,94925.09
2023-03-10T02:22:57.494Z,94922.94
2023-03-10T02:25:40.210Z,94917.84
2023-03-10T02:28:10.473Z,94917.19
2023-03-10T02:30:42.596Z,94911.19
2023-03-10T02:33:18.203Z,94903.41
2023-03-10T02:35:47.495Z,94886.72
2023-03-10T02:38:21.660Z,94876.22
2023-03-10T02:40:52.506Z,94886.16
2023-03-10T02:43:30.227Z,94895.41
2023-03-10T02:46:08.370Z,94899.81
2023-03-10T02:48:42.931Z,94889.41
2023-03-10T02:51:22.910Z,94884.00
2023-03-10T02:53:51.567Z,94879.72
2023-03-10T02:56:20.597Z,94891.78
2023-03-10T02:58:52.953Z,94880.94
2023-03-10T03:01:21.900Z,94870.91
2023-03-10T03:03:50.572Z,94861.09
2023-03-10T03:06:19.735Z,94858.84
2023-03-10T03:08:48.862Z,94845.97
2023-03-10T03:11:20.456Z,94860.81
2023-03-10T03:13:49.171Z,94878.69
2023-03-10T03:16:19.539Z,94884.78
2023-03-10T03:18:51.863Z,94885.00
2023-03-10T03:21:23.018Z,94865.03
2023-03-10T03:23:55.420Z,94869.22
2023-03-10T03:26:27.201Z,94866.38
2023-03-10T03:29:04.708Z,94862.13
2023-03-10T03:31:38.134Z,94868.56
2023-03-10T03:34:11.929Z,94857.03
2023-03-10T03:36:41.012Z,94855.91
2023-03-10T03:39:11.482Z,94856.94
2023-03-10T03:41:41.573Z,94860.31
2023-03-10T03:44:11.849Z,94859.06
2023-03-10T03:46:42.404Z,94855.16
2023-03-10T03:49:10.837Z,94869.03
2023-03-10T03:51:39.776Z,94881.06
2023-03-10T03:54:08.486Z,94883.44
2023-03-10T03:56:40.017Z,94875.31
2023-03-10T03:59:10.055Z,94899.47
2023-03-10T04:01:39.374Z,94909.72
2023-03-10T04:04:10.080Z,94911.22
2023-03-10T04:06:38.860Z,94923.06
2023-03-10T04:09:10.625Z,94926.09
2023-03-10T04:11:41.200Z,94936.81
2023-03-10T04:14:09.940Z,94924.97
2023-03-10T04:16:38.552Z,94916.63
2023-03-10T04:19:09.789Z,94908.94
2023-03-10T04:21:42.466Z,94886.94
2023-03-10T04:24:11.291Z,94895.94
2023-03-10T04:26:40.552Z,94890.19
2023-03-10T04:29:10.495Z,94872.91
2023-03-10T04:31:41.391Z,94866.38
2023-03-10T04:34:12.635Z,94877.41
2023-03-10T04:36:41.325Z,94877.41
2023-03-10T04:39:10.161Z,94883.16
2023-03-10T04:41:38.799Z,94886.19
2023-03-10T04:44:10.948Z,94892.59
2023-03-10T04:46:44.794Z,94881.22
2023-03-10T04:49:15.399Z,94907.66
2023-03-10T04:51:46.162Z,94902.66
2023-03-10T04:54:14.925Z,94911.06
2023-03-10T04:56:44.861Z,94917.03
2023-03-10T04:59:13.550Z,94924.13
2023-03-10T05:01:43.210Z,94917.56
2023-03-10T05:04:14.019Z,94921.16
2023-03-10T05:06:42.789Z,94926.44
2023-03-10T05:09:30.832Z,94916.72
2023-03-10T05:11:59.404Z,94926.69
2023-03-10T05:14:31.978Z,94923.88
2023-03-10T05:17:00.746Z,94922.41
2023-03-10T05:19:31.729Z,94925.13
2023-03-10T05:22:01.454Z,94924.75
2023-03-10T05:24:30.907Z,94909.34
2023-03-10T05:26:59.810Z,94907.53
2023-03-10T05:29:28.422Z,94892.69
2023-03-10T05:32:03.006Z,94901.66
2023-03-10T05:34:38.261Z,94892.34
2023-03-10T05:37:07.128Z,94889.56
2023-03-10T05:39:35.923Z,94883.59
2023-03-10T05:42:10.428Z,94867.41
2023-03-10T05:44:38.842Z,94862.50
2023-03-10T05:47:09.041Z,94874.00
2023-03-10T05:49:39.085Z,94878.25
2023-03-10T05:52:09.320Z,94872.59
2023-03-10T05:54:39.377Z,94874.19
2023-03-10T05:57:08.057Z,94875.25
2023-03-10T05:59:41.158Z,94859.47
2023-03-10T06:02:10.058Z,94859.38
2023-03-10T06:04:40.406Z,94859.03
2023-03-10T06:07:08.974Z,94851.31
2023-03-10T06:09:37.705Z,94844.72
2023-03-10T06:12:06.995Z,94844.72
2023-03-10T06:14:35.467Z,94836.56
2023-03-10T06:17:04.155Z,94841.97
2023-03-10T06:19:32.823Z,94826.25
2023-03-10T06:22:03.130Z,94830.09
2023-03-10T06:24:32.239Z,94825.72
2023-03-10T06:27:01.149Z,94821.72
2023-03-10T06:29:30.165Z,94821.56
2023-03-10T06:31:58.764Z,94823.66
2023-03-10T06:34:28.213Z,94822.41
2023-03-10T06:36:57.447Z,94823.22
2023-03-10T06:39:29.131Z,94818.44
2023-03-10T06:41:57.677Z,94823.00
2023-03-10T06:44:26.240Z,94822.00
2023-03-10T06:46:54.634Z,94813.50
2023-03-10T06:49:23.323Z,94816.06
2023-03-10T06:51:51.730Z,94815.44
2023-03-10T06:54:22.932Z,94821.91
2023-03-10T06:56:53.659Z,94823.28
2023-03-10T06:59:22.432Z,94823.59
2023-03-10T07:01:51.175Z,94816.59
2023-03-10T07:04:19.700Z,94811.03
2023-03-10T07:06:48.543Z,94810.31
2023-03-10T07:09:16.930Z,94806.31
2023-03-10T07:11:45.888Z,94796.00
2023-03-10T07:14:15.768Z,94794.56
2023-03-10T07:16:46.329Z,94791.16
2023-03-10T07:19:15.266Z,94799.31
2023-03-10T07:21:43.676Z,94793.38
2023-03-10T07:24:12.407Z,94808.28
2023-03-10T07:26:41.067Z,94799.22
2023-03-10T07:29:10.301Z,94797.56
2023-03-10T07:31:40.297Z,94796.41
2023-03-10T07:34:08.843Z,94784.41
2023-03-10T07:36:37.289Z,94787.13
2023-03-10T07:39:05.837Z,94796.63
2023-03-10T07:41:34.419Z,94786.38
2023-03-10T07:44:03.021Z,94786.81
2023-03-10T07:46:31.884Z,94777.47
2023-03-10T07:49:04.407Z,94774.50
2023-03-10T07:51:34.193Z,94765.97
2023-03-10T07:54:02.808Z,94760.28
2023-03-10T07:56:31.406Z,94765.53
2023-03-10T07:59:00.824Z,94763.88
2023-03-10T08:01:29.407Z,94758.56
2023-03-10T08:03:58.481Z,94758.28
2023-03-10T08:06:30.911Z,94755.75
2023-03-10T08:08:59.746Z,94766.97
2023-03-10T08:11:28.404Z,94759.28
2023-03-10T08:13:57.631Z,94762.19
2023-03-10T08:16:26.638Z,94754.00
2023-03-10T08:18:55.203Z,94766.69
2023-03-10T08:21:23.936Z,94763.59
2023-03-10T08:23:53.974Z,94754.19
2023-03-10T08:26:23.300Z,94763.44
2023-03-10T08:28:51.885Z,94763.66
2023-03-10T08:31:23.270Z,94754.09
2023-03-10T08:33:56.400Z,94767.34
2023-03-10T08:36:29.015Z,94754.59
2023-03-10T08:39:01.133Z,94764.25
2023-03-10T08:41:35.003Z,94763.56
2023-03-10T08:44:11.902Z,94759.72
2023-03-10T08:46:40.689Z,94758.53
2023-03-10T08:49:09.977Z,94761.25
2023-03-10T08:51:39.276Z,94754.97
2023-03-10T08:54:10.485Z,94753.06
2023-03-10T08:56:39.365Z,94767.56
2023-03-10T08:59:08.434Z,94771.06
2023-03-10T09:01:39.142Z,94758.88
2023-03-10T09:04:09.791Z,94768.22
2023-03-10T09:06:39.533Z,94769.75
2023-03-10T09:09:11.716Z,94770.19
2023-03-10T09:11:42.316Z,94778.88
2023-03-10T09:14:15.028Z,94765.94
2023-03-10T09:16:45.495Z,94776.50
2023-03-10T09:19:14.098Z,94765.06
2023-03-10T09:21:43.285Z,94761.66
2023-03-10T09:24:13.894Z,94762.81
2023-03-10T09:26:44.706Z,94769.56
2023-03-10T09:29:13.743Z,94767.88
2023-03-10T09:31:43.788Z,94771.38
2023-03-10T09:34:12.770Z,94771.47
2023-03-10T09:36:41.897Z,94765.59
2023-03-10T09:39:10.349Z,94767.16
2023-03-10T09:42:39.020Z,94766.34
2023-03-10T09:45:27.979Z,94765.91
2023-03-10T09:48:17.229Z,94757.84
2023-03-10T09:50:49.308Z,94747.78
2023-03-10T09:53:39.427Z,94751.09
2023-03-10T09:56:14.367Z,94760.13
2023-03-10T09:58:49.290Z,94773.81
2023-03-10T10:01:22.516Z,94765.56
2023-03-10T10:03:55.118Z,94762.78
2023-03-10T10:06:28.895Z,94772.53
2023-03-10T10:09:05.132Z,94777.91
2023-03-10T10:11:36.722Z,94772.25
2023-03-10T10:14:38.393Z,94791.28
2023-03-10T10:17:20.953Z,94769.88
2023-03-10T10:19:52.344Z,94763.72
2023-03-10T10:22:27.981Z,94769.25
2023-03-10T10:25:20.406Z,94775.63
2023-03-10T10:27:54.444Z,94770.63
2023-03-10T10:30:38.469Z,94771.06
2023-03-10T10:33:11.064Z,94780.81
2023-03-10T10:35:42.705Z,94768.88
2023-03-10T10:38:24.771Z,94766.53
2023-03-10T10:41:01.598Z,94767.34
2023-03-10T10:43:33.130Z,94767.28
2023-03-10T10:46:13.652Z,94743.03
2023-03-10T10:48:46.387Z,94760.34
2023-03-10T10:51:24.696Z,94744.75
2023-03-10T10:53:53.354Z,94761.94
2023-03-10T10:56:24.150Z,94739.25
2023-03-10T10:59:09.277Z,94732.16
2023-03-10T11:01:53.393Z,94731.91
2023-03-10T11:04:24.357Z,94737.75
2023-03-10T11:06:54.375Z,94737.72
2023-03-10T11:09:24.595Z,94754.91
2023-03-10T11:12:08.635Z,94720.56
2023-03-10T11:14:58.587Z,94720.22
2023-03-10T11:17:35.943Z,94725.13
2023-03-10T11:20:19.098Z,94717.41
2023-03-10T11:22:54.262Z,94741.91
2023-03-10T11:25:34.309Z,94718.16
2023-03-10T11:28:25.504Z,94726.88
2023-03-10T11:31:10.096Z,94726.75
2023-03-10T11:33:51.802Z,94713.75
2023-03-10T11:36:43.237Z,94703.56
2023-03-10T11:39:35.144Z,94705.25
2023-03-10T11:42:15.316Z,94707.16
2023-03-10T11:44:59.041Z,94714.72
2023-03-10T11:47:49.434Z,94706.13
2023-03-10T11:50:33.580Z,94714.50
2023-03-10T11:53:11.714Z,94730.50
2023-03-10T11:55:43.049Z,94714.50
2023-03-10T11:58:25.482Z,94706.44
2023-03-10T12:00:56.268Z,94714.53
2023-03-10T12:03:42.091Z,94714.44
2023-03-10T12:06:20.280Z,94709.72
2023-03-10T12:08:55.799Z,94714.91
2023-03-10T12:11:28.237Z,94710.00
2023-03-10T12:14:01.921Z,94708.38
2023-03-10T12:16:36.872Z,94693.22
2023-03-10T12:19:07.052Z,94704.75
2023-03-10T12:21:37.073Z,94686.47
2023-03-10T12:24:06.763Z,94690.28
2023-03-10T12:27:05.108Z,94692.59
2023-03-10T12:29:40.973Z,94697.22
2023-03-10T12:32:47.743Z,94691.88
2023-03-10T12:35:50.827Z,94688.81
2023-03-10T12:38:47.561Z,94698.44
2023-03-10T12:41:48.183Z,94702.53
2023-03-10T12:44:55.294Z,94684.56
2023-03-10T12:47:50.767Z,94688.44
2023-03-10T12:50:33.301Z,94682.13
2023-03-10T12:53:26.916Z,94679.00
2023-03-10T12:56:23.294Z,94673.94
2023-03-10T12:59:02.419Z,94672.38
2023-03-10T13:01:49.451Z,94682.50
2023-03-10T13:04:26.844Z,94675.09
2023-03-10T13:07:03.672Z,94678.63
2023-03-10T13:09:42.558Z,94652.00
2023-03-10T13:12:20.065Z,94671.13
2023-03-10T13:14:55.467Z,94698.13
2023-03-10T13:17:27.962Z,94644.56
2023-03-10T13:20:08.543Z,94668.09
2023-03-10T13:22:36.994Z,94667.66
2023-03-10T13:25:09.663Z,94641.84
2023-03-10T13:27:43.608Z,94672.38
2023-03-10T13:30:20.089Z,94664.94
2023-03-10T13:32:57.509Z,94659.88
2023-03-10T13:35:32.236Z,94668.84
2023-03-10T13:38:14.103Z,94666.50
2023-03-10T13:40:46.105Z,94643.75
2023-03-10T13:43:37.189Z,94653.91
2023-03-10T13:46:14.260Z,94652.44
2023-03-10T13:48:44.473Z,94678.19
2023-03-10T13:51:25.328Z,94674.28
2023-03-10T13:53:58.004Z,94666.13
2023-03-10T13:56:31.228Z,94666.50
2023-03-10T13:59:03.673Z,94673.09
2023-03-10T14:01:37.793Z,94670.75
2023-03-10T14:04:09.614Z,94683.66
2023-03-10T14:06:38.503Z,94681.63
2023-03-10T14:09:16.224Z,94686.34
2023-03-10T14:11:46.973Z,94665.59
2023-03-10T14:14:30.290Z,94697.56
2023-03-10T14:17:01.801Z,94696.34
2023-03-10T14:19:54.554Z,94699.06
2023-03-10T14:22:38.102Z,94701.25
2023-03-10T14:25:16.764Z,94687.22
2023-03-10T14:27:51.362Z,94683.31
2023-03-10T14:30:26.202Z,94690.03
2023-03-10T14:32:58.948Z,94697.78
2023-03-10T14:35:29.843Z,94691.53
2023-03-10T14:37:58.597Z,94720.47
2023-03-10T14:40:27.505Z,94686.84
2023-03-10T14:43:02.352Z,94693.41
2023-03-10T14:45:35.272Z,94689.81
2023-03-10T14:48:13.392Z,94694.84
2023-03-10T14:50:42.058Z,94701.50
2023-03-10T14:53:12.276Z,94717.03
2023-03-10T14:55:41.495Z,94696.31
2023-03-10T14:58:15.196Z,94730.72
2023-03-10T15:00:45.369Z,94707.22
2023-03-10T15:03:14.477Z,94700.56
2023-03-10T15:05:48.780Z,94708.72
2023-03-10T15:08:19.104Z,94714.78
2023-03-10T15:10:50.726Z,94721.69
2023-03-10T15:13:21.380Z,94712.19
2023-03-10T15:15:51.937Z,94737.41
2023-03-10T15:18:23.829Z,94742.47
2023-03-10T15:20:55.267Z,94724.13
2023-03-10T15:23:23.656Z,94725.69
2023-03-10T15:25:52.157Z,94739.28
2023-03-10T15:28:20.900Z,94740.50
2023-03-10T15:30:51.237Z,94758.81
2023-03-10T15:33:19.768Z,94740.19
2023-03-10T15:35:48.186Z,94741.59
2023-03-10T15:38:17.088Z,94746.47
2023-03-10T15:40:45.634Z,94778.19
2023-03-10T15:43:14.651Z,94774.66
2023-03-10T15:45:46.708Z,94763.84
2023-03-10T15:48:16.661Z,94785.75
2023-03-10T15:50:47.993Z,94779.81
2023-03-10T15:53:16.663Z,94747.00
2023-03-10T15:55:45.174Z,94774.13
2023-03-10T15:58:13.999Z,94794.56
2023-03-10T16:00:43.995Z,94772.25
2023-03-10T16:03:17.751Z,94779.06
2023-03-10T16:05:49.602Z,94785.47
2023-03-10T16:08:19.365Z,94789.28
2023-03-10T16:10:54.586Z,94784.19
2023-03-10T16:13:23.886Z,94776.31
2023-03-10T16:15:53.051Z,94779.47
2023-03-10T16:18:21.569Z,94785.84
2023-03-10T16:20:58.699Z,94775.16
2023-03-10T16:23:29.460Z,94793.53
2023-03-10T16:26:10.473Z,94781.63
2023-03-10T16:28:42.326Z,94788.72
2023-03-10T16:31:12.680Z,94783.28
2023-03-10T16:33:42.800Z,94801.47
2023-03-10T16:36:18.214Z,94794.06
2023-03-10T16:38:47.155Z,94794.72
2023-03-10T16:41:15.759Z,94797.75
2023-03-10T16:43:44.724Z,94790.09
2023-03-10T16:46:17.449Z,94794.38
2023-03-10T16:48:49.469Z,94802.91
2023-03-10T16:51:30.134Z,94803.09
2023-03-10T16:54:02.006Z,94801.66
2023-03-10T16:56:32.869Z,94804.59
2023-03-10T16:59:01.445Z,94826.88
2023-03-10T17:01:30.056Z,94819.06
2023-03-10T17:03:59.471Z,94816.72
2023-03-10T17:06:33.561Z,94810.47
2023-03-10T17:09:03.261Z,94824.53
2023-03-10T17:11:35.702Z,94825.88
2023-03-10T17:14:07.138Z,94863.44
2023-03-10T17:16:39.195Z,94862.59
2023-03-10T17:19:12.999Z,94871.59
2023-03-10T17:21:46.848Z,94878.69
2023-03-10T17:24:18.396Z,94869.50
2023-03-10T17:26:47.622Z,94878.44
2023-03-10T17:29:17.764Z,94871.19
2023-03-10T17:31:50.290Z,94889.84
2023-03-10T17:34:20.561Z,94889.03
2023-03-10T17:36:52.776Z,94904.56
2023-03-10T17:39:24.433Z,94883.59
2023-03-10T17:41:54.451Z,94922.66
2023-03-10T17:44:23.365Z,94914.00
2023-03-10T17:46:56.037Z,94920.56
2023-03-10T17:49:24.547Z,94936.00
2023-03-10T17:51:54.847Z,94948.41
2023-03-10T17:54:23.989Z,94946.84
2023-03-10T17:56:52.722Z,94943.88
2023-03-10T17:59:21.216Z,94932.94
2023-03-10T18:01:50.042Z,94934.41
2023-03-10T18:04:18.514Z,94933.63
2023-03-10T18:06:47.159Z,94924.59
2023-03-10T18:09:17.476Z,94921.25
2023-03-10T18:11:46.265Z,94933.63
2023-03-10T18:14:14.882Z,94918.03
2023-03-10T18:16:43.343Z,94925.22
2023-03-10T18:19:12.627Z,94923.28
2023-03-10T18:21:41.214Z,94917.84
2023-03-10T18:24:12.561Z,94946.41
2023-03-10T18:26:44.022Z,94951.06
2023-03-10T18:29:14.220Z,94955.94
2023-03-10T18:31:43.435Z,94958.78
2023-03-10T18:34:12.958Z,94958.66
2023-03-10T18:36:41.986Z,94954.75
2023-03-10T18:39:11.837Z,94969.28
2023-03-10T18:41:42.300Z,94981.34
2023-03-10T18:44:10.868Z,94985.13
2023-03-10T18:46:39.717Z,94977.88
2023-03-10T18:49:08.459Z,94985.44
2023-03-10T18:51:36.953Z,94965.09
2023-03-10T18:54:06.973Z,94960.81
2023-03-10T18:56:36.403Z,94953.09
2023-03-10T18:59:06.266Z,94954.44
2023-03-10T19:01:34.855Z,94948.94
2023-03-10T19:04:03.716Z,94933.09
2023-03-10T19:06:33.233Z,94940.03
2023-03-10T19:09:02.426Z,94945.56
2023-03-10T19:11:36.313Z,94951.91
2023-03-10T19:14:08.024Z,94957.16
2023-03-10T19:16:37.036Z,94948.56
2023-03-10T19:19:05.848Z,94958.94
2023-03-10T19:21:37.021Z,94936.44
2023-03-10T19:24:10.108Z,94931.81
2023-03-10T19:26:39.033Z,94933.44
2023-03-10T19:29:08.845Z,94938.41
2023-03-10T19:31:37.318Z,94939.13
2023-03-10T19:34:05.678Z,94937.31
2023-03-10T19:36:34.196Z,94920.03
2023-03-10T19:39:02.691Z,94930.91
2023-03-10T19:41:31.577Z,94947.25
2023-03-10T19:44:00.584Z,94952.44
2023-03-10T19:46:31.048Z,94951.66
2023-03-10T19:49:00.470Z,94947.47
2023-03-10T19:51:30.798Z,94936.47
2023-03-10T19:54:02.948Z,94945.28
2023-03-10T19:56:31.936Z,94936.22
2023-03-10T19:59:01.406Z,94923.69
2023-03-10T20:01:32.077Z,94914.19
2023-03-10T20:04:04.582Z,94925.22
2023-03-10T20:06:32.987Z,94947.41
2023-03-10T20:09:01.292Z,94950.63
2023-03-10T20:11:29.811Z,94955.03
2023-03-10T20:13:58.302Z,94955.69
2023-03-10T20:16:27.879Z,94947.28
2023-03-10T20:18:57.907Z,94950.09
2023-03-10T20:21:27.768Z,94941.53
2023-03-10T20:23:56.562Z,94954.09
2023-03-10T20:26:25.672Z,94962.53
2023-03-10T20:28:54.355Z,94973.00
2023-03-10T20:31:30.696Z,94996.06
2023-03-10T20:34:01.091Z,95004.97
2023-03-10T20:36:30.880Z,95008.72
2023-03-10T20:38:59.586Z,94997.19
2023-03-10T20:41:28.183Z,95014.72
2023-03-10T20:43:56.826Z,95011.97
2023-03-10T20:46:27.359Z,95027.25
2023-03-10T20:48:57.387Z,95019.09
2023-03-10T20:51:27.403Z,95004.41
2023-03-10T20:53:57.449Z,95017.06
2023-03-10T20:56:26.467Z,95026.66
2023-03-10T20:58:59.298Z,95009.59
2023-03-10T21:01:28.887Z,95031.94
2023-03-10T21:03:58.634Z,95025.63
2023-03-10T21:06:29.454Z,95054.97
2023-03-10T21:08:57.937Z,95049.56
2023-03-10T21:11:26.419Z,95075.81
2023-03-10T21:13:54.846Z,95093.81
2023-03-10T21:16:23.745Z,95090.59
2023-03-10T21:18:52.194Z,95077.38
2023-03-10T21:21:20.773Z,95096.50
2023-03-10T21:23:50.973Z,95096.72
2023-03-10T21:26:22.359Z,95093.47
2023-03-10T21:28:51.642Z,95088.97
2023-03-10T21:31:20.421Z,95108.00
2023-03-10T21:33:50.292Z,95121.94
2023-03-10T21:36:22.419Z,95125.28
2023-03-10T21:38:52.866Z,95142.66
2023-03-10T21:41:24.819Z,95099.41
2023-03-10T21:43:54.848Z,95136.28
2023-03-10T21:46:24.026Z,95122.97
2023-03-10T21:48:53.379Z,95169.09
2023-03-10T21:51:24.797Z,95176.09
2023-03-10T21:53:58.764Z,95171.50
2023-03-10T21:56:29.208Z,95244.97
2023-03-10T21:58:58.600Z,95242.38
2023-03-10T22:01:27.964Z,95268.06
2023-03-10T22:03:56.783Z,95265.19
2023-03-10T22:06:25.523Z,95284.19
2023-03-10T22:08:55.595Z,95278.72
2023-03-10T22:11:24.080Z,95287.44
2023-03-10T22:13:55.424Z,95299.16
2023-03-10T22:16:24.651Z,95293.34
2023-03-10T22:18:53.669Z,95302.09
2023-03-10T22:21:22.445Z,95322.38
2023-03-10T22:23:51.088Z,95330.91
2023-03-10T22:26:20.937Z,95325.06
2023-03-10T22:28:49.680Z,95343.16
2023-03-10T22:31:18.349Z,95338.59
2023-03-10T22:33:50.110Z,95329.25
2023-03-10T22:36:19.328Z,95336.84
2023-03-10T22:38:47.790Z,95349.50
2023-03-10T22:41:16.513Z,95336.81
2023-03-10T22:43:47.083Z,95342.94
2023-03-10T22:46:17.473Z,95344.19
2023-03-10T22:48:46.262Z,95347.06
2023-03-10T22:51:18.891Z,95349.72
2023-03-10T22:53:47.595Z,95377.22
2023-03-10T22:56:16.494Z,95376.72
2023-03-10T22:58:46.330Z,95384.03
2023-03-10T23:01:15.194Z,95378.19
2023-03-10T23:03:43.617Z,95400.06
2023-03-10T23:06:14.517Z,95405.69
2023-03-10T23:08:46.455Z,95413.84
2023-03-10T23:11:17.533Z,95403.38
2023-03-10T23:13:47.769Z,95425.88
2023-03-10T23:16:18.246Z,95421.53
2023-03-10T23:18:51.674Z,95422.66
2023-03-10T23:21:20.174Z,95423.63
2023-03-10T23:23:49.080Z,95438.88
2023-03-10T23:26:18.193Z,95433.19
2023-03-10T23:28:48.133Z,95448.09
2023-03-10T23:31:17.267Z,95465.66
2023-03-10T23:33:46.598Z,95481.38
2023-03-10T23:36:15.780Z,95477.31
2023-03-10T23:38:44.334Z,95474.66
2023-03-10T23:41:13.456Z,95492.63
2023-03-10T23:43:42.260Z,95482.72
2023-03-10T23:46:15.703Z,95489.19
2023-03-10T23:48:44.228Z,95500.63
2023-03-10T23:51:15.572Z,95499.50
2023-03-10T23:53:44.488Z,95517.38
2023-03-10T23:56:12.954Z,95512.81
2023-03-10T23:58:45.416Z,95525.78
